createdAt,value
2022-08-16T00:00:22.030Z,342.00
2022-08-16T00:00:45.911Z,342.00
2022-08-16T00:01:15.897Z,342.00
2022-08-16T00:01:45.950Z,342.00
2022-08-16T00:02:15.977Z,344.00
2022-08-16T00:02:46.237Z,344.00
2022-08-16T00:03:16.059Z,345.00
2022-08-16T00:03:46.125Z,344.00
2022-08-16T00:04:16.122Z,344.00
2022-08-16T00:04:46.235Z,343.00
2022-08-16T00:05:16.367Z,342.00
2022-08-16T00:05:48.452Z,342.00
2022-08-16T00:06:16.459Z,344.00
2022-08-16T00:06:46.458Z,345.00
2022-08-16T00:07:16.570Z,344.00
2022-08-16T00:07:46.676Z,344.00
2022-08-16T00:08:35.629Z,343.00
2022-08-16T00:08:46.690Z,341.00
2022-08-16T00:09:16.746Z,343.00
2022-08-16T00:09:46.864Z,344.00
2022-08-16T00:10:20.860Z,344.00
2022-08-16T00:10:46.967Z,344.00
2022-08-16T00:11:17.022Z,345.00
2022-08-16T00:11:46.986Z,346.00
2022-08-16T00:12:18.006Z,347.00
2022-08-16T00:12:47.178Z,347.00
2022-08-16T00:13:17.079Z,345.00
2022-08-16T00:13:53.604Z,343.00
2022-08-16T00:14:17.117Z,344.00
2022-08-16T00:14:47.165Z,343.00
2022-08-16T00:15:17.382Z,344.00
2022-08-16T00:15:52.159Z,343.00
2022-08-16T00:17:05.331Z,341.00
2022-08-16T00:17:06.679Z,342.00
2022-08-16T00:17:19.280Z,343.00
2022-08-16T00:17:57.030Z,339.00
2022-08-16T00:18:17.551Z,339.00
2022-08-16T00:18:47.570Z,339.00
2022-08-16T00:19:17.566Z,340.00
2022-08-16T00:19:47.607Z,341.00
2022-08-16T00:20:17.636Z,342.00
2022-08-16T00:20:47.778Z,340.00
2022-08-16T00:21:17.845Z,342.00
2022-08-16T00:21:53.251Z,343.00
2022-08-16T00:22:18.032Z,343.00
2022-08-16T00:22:48.278Z,345.00
2022-08-16T00:23:18.060Z,345.00
2022-08-16T00:23:48.165Z,346.00
2022-08-16T00:24:32.695Z,347.00
2022-08-16T00:24:51.457Z,348.00
2022-08-16T00:25:18.347Z,347.00
2022-08-16T00:26:35.066Z,344.00
2022-08-16T00:26:35.476Z,346.00
2022-08-16T00:26:48.559Z,344.00
2022-08-16T00:27:18.679Z,345.00
2022-08-16T00:27:48.756Z,346.00
2022-08-16T00:28:18.766Z,346.00
2022-08-16T00:28:48.844Z,345.00
2022-08-16T00:29:18.957Z,343.00
2022-08-16T00:30:00.525Z,344.00
2022-08-16T00:30:19.533Z,342.00
2022-08-16T00:30:49.040Z,342.00
2022-08-16T00:31:19.054Z,343.00
2022-08-16T00:31:59.743Z,344.00
2022-08-16T00:32:19.079Z,344.00
2022-08-16T00:32:49.467Z,343.00
2022-08-16T00:33:19.209Z,343.00
2022-08-16T00:33:50.287Z,344.00
2022-08-16T00:34:19.406Z,345.00
2022-08-16T00:34:53.024Z,346.00
2022-08-16T00:35:19.530Z,345.00
2022-08-16T00:35:49.790Z,345.00
2022-08-16T00:36:19.623Z,345.00
2022-08-16T00:36:49.706Z,344.00
2022-08-16T00:37:20.433Z,344.00
2022-08-16T00:37:56.658Z,346.00
2022-08-16T00:38:41.459Z,346.00
2022-08-16T00:38:49.862Z,346.00
2022-08-16T00:39:19.975Z,346.00
2022-08-16T00:39:57.201Z,344.00
2022-08-16T00:40:34.347Z,344.00
2022-08-16T00:40:50.831Z,344.00
2022-08-16T00:41:20.121Z,344.00
2022-08-16T00:41:50.209Z,343.00
2022-08-16T00:42:30.121Z,344.00
2022-08-16T00:42:50.264Z,342.00
2022-08-16T00:43:20.306Z,342.00
2022-08-16T00:43:50.413Z,344.00
2022-08-16T00:44:20.469Z,344.00
2022-08-16T00:44:50.582Z,343.00
2022-08-16T00:45:20.679Z,343.00
2022-08-16T00:46:00.099Z,342.00
2022-08-16T00:46:33.825Z,343.00
2022-08-16T00:46:54.005Z,343.00
2022-08-16T00:47:20.817Z,343.00
2022-08-16T00:47:50.827Z,340.00
2022-08-16T00:48:30.479Z,339.00
2022-08-16T00:48:50.854Z,339.00
2022-08-16T00:49:20.968Z,340.00
2022-08-16T00:49:56.241Z,339.00
2022-08-16T00:50:21.056Z,338.00
2022-08-16T00:50:51.190Z,338.00
2022-08-16T00:51:21.227Z,340.00
2022-08-16T00:51:55.094Z,339.00
2022-08-16T00:52:29.852Z,340.00
2022-08-16T00:52:53.466Z,341.00
2022-08-16T00:53:21.537Z,340.00
2022-08-16T00:53:51.654Z,339.00
2022-08-16T00:54:21.782Z,338.00
2022-08-16T00:54:51.824Z,338.00
2022-08-16T00:55:22.220Z,339.00
2022-08-16T00:55:52.038Z,340.00
2022-08-16T00:56:55.889Z,339.00
2022-08-16T00:56:57.988Z,339.00
2022-08-16T00:57:23.984Z,338.00
2022-08-16T00:57:59.117Z,339.00
2022-08-16T00:58:34.946Z,341.00
2022-08-16T00:58:52.153Z,340.00
2022-08-16T00:59:23.838Z,337.00
2022-08-16T00:59:54.569Z,336.00
2022-08-16T01:00:23.906Z,337.00
2022-08-16T01:00:53.940Z,337.00
2022-08-16T01:01:22.280Z,340.00
2022-08-16T01:01:52.253Z,339.00
2022-08-16T01:02:31.931Z,339.00
2022-08-16T01:02:52.534Z,340.00
2022-08-16T01:03:30.250Z,342.00
2022-08-16T01:03:52.460Z,344.00
2022-08-16T01:04:29.568Z,344.00
2022-08-16T01:05:10.475Z,345.00
2022-08-16T01:05:23.969Z,344.00
2022-08-16T01:05:52.707Z,343.00
2022-08-16T01:06:39.840Z,343.00
2022-08-16T01:07:02.303Z,343.00
2022-08-16T01:07:22.747Z,343.00
2022-08-16T01:07:53.344Z,343.00
2022-08-16T01:08:36.168Z,343.00
2022-08-16T01:08:52.885Z,343.00
2022-08-16T01:09:22.995Z,343.00
2022-08-16T01:09:53.064Z,341.00
2022-08-16T01:10:32.507Z,341.00
2022-08-16T01:10:53.141Z,341.00
2022-08-16T01:11:23.135Z,343.00
2022-08-16T01:11:54.988Z,343.00
2022-08-16T01:12:26.659Z,342.00
2022-08-16T01:12:53.394Z,345.00
2022-08-16T01:13:23.439Z,343.00
2022-08-16T01:13:53.465Z,340.00
2022-08-16T01:14:26.218Z,338.00
2022-08-16T01:14:53.592Z,339.00
2022-08-16T01:15:24.223Z,341.00
2022-08-16T01:15:53.810Z,343.00
2022-08-16T01:16:23.797Z,343.00
2022-08-16T01:16:53.888Z,343.00
2022-08-16T01:17:24.193Z,344.00
2022-08-16T01:17:56.037Z,344.00
2022-08-16T01:18:40.115Z,345.00
2022-08-16T01:18:54.134Z,347.00
2022-08-16T01:19:24.238Z,345.00
2022-08-16T01:19:57.193Z,342.00
2022-08-16T01:20:30.460Z,342.00
2022-08-16T01:20:54.376Z,344.00
2022-08-16T01:21:24.510Z,345.00
2022-08-16T01:21:54.494Z,347.00
2022-08-16T01:22:46.873Z,346.00
2022-08-16T01:22:55.982Z,346.00
2022-08-16T01:23:24.817Z,346.00
2022-08-16T01:24:00.961Z,347.00
2022-08-16T01:24:51.688Z,347.00
2022-08-16T01:24:55.497Z,346.00
2022-08-16T01:25:34.612Z,347.00
2022-08-16T01:26:00.283Z,346.00
2022-08-16T01:26:35.019Z,347.00
2022-08-16T01:26:55.401Z,346.00
2022-08-16T01:27:25.743Z,345.00
2022-08-16T01:27:55.575Z,345.00
2022-08-16T01:28:25.650Z,344.00
2022-08-16T01:28:55.760Z,343.00
2022-08-16T01:29:56.018Z,341.00
2022-08-16T01:29:56.743Z,343.00
2022-08-16T01:30:26.394Z,341.00
2022-08-16T01:30:55.962Z,340.00
2022-08-16T01:31:31.229Z,341.00
2022-08-16T01:31:55.995Z,342.00
2022-08-16T01:32:31.621Z,344.00
2022-08-16T01:33:01.299Z,344.00
2022-08-16T01:33:33.298Z,345.00
2022-08-16T01:33:56.023Z,347.00
2022-08-16T01:34:26.712Z,345.00
2022-08-16T01:34:56.953Z,345.00
2022-08-16T01:35:26.293Z,346.00
2022-08-16T01:35:56.461Z,345.00
2022-08-16T01:36:26.689Z,346.00
2022-08-16T01:36:58.199Z,345.00
2022-08-16T01:37:26.545Z,345.00
2022-08-16T01:37:56.662Z,345.00
2022-08-16T01:38:28.421Z,345.00
2022-08-16T01:38:57.490Z,345.00
2022-08-16T01:39:26.965Z,344.00
2022-08-16T01:39:56.978Z,344.00
2022-08-16T01:40:26.951Z,344.00
2022-08-16T01:40:57.061Z,345.00
2022-08-16T01:41:29.594Z,345.00
2022-08-16T01:41:57.100Z,344.00
2022-08-16T01:42:27.141Z,342.00
2022-08-16T01:42:57.247Z,342.00
2022-08-16T01:43:27.359Z,344.00
2022-08-16T01:44:01.086Z,343.00
2022-08-16T01:44:37.607Z,343.00
2022-08-16T01:44:57.447Z,342.00
2022-08-16T01:45:40.938Z,341.00
2022-08-16T01:45:57.884Z,341.00
2022-08-16T01:46:31.244Z,341.00
2022-08-16T01:46:57.547Z,342.00
2022-08-16T01:47:27.613Z,344.00
2022-08-16T01:47:57.678Z,344.00
2022-08-16T01:48:27.730Z,345.00
2022-08-16T01:48:57.846Z,344.00
2022-08-16T01:49:42.861Z,345.00
2022-08-16T01:50:42.836Z,344.00
2022-08-16T01:50:43.471Z,344.00
2022-08-16T01:51:08.271Z,342.00
2022-08-16T01:51:28.024Z,342.00
2022-08-16T01:51:58.012Z,342.00
2022-08-16T01:52:30.166Z,342.00
2022-08-16T01:52:58.137Z,342.00
2022-08-16T01:53:28.251Z,342.00
2022-08-16T01:53:58.262Z,341.00
2022-08-16T01:54:31.131Z,340.00
2022-08-16T01:54:58.470Z,340.00
2022-08-16T01:55:35.427Z,341.00
2022-08-16T01:55:58.606Z,341.00
2022-08-16T01:56:28.638Z,343.00
2022-08-16T01:56:58.626Z,341.00
2022-08-16T01:57:28.745Z,340.00
2022-08-16T01:57:58.812Z,340.00
2022-08-16T01:58:28.867Z,339.00
2022-08-16T01:58:58.860Z,339.00
2022-08-16T01:59:28.979Z,340.00
2022-08-16T01:59:59.095Z,341.00
2022-08-16T02:00:29.920Z,342.00
2022-08-16T02:00:59.198Z,342.00
2022-08-16T02:01:29.500Z,342.00
2022-08-16T02:02:00.145Z,343.00
2022-08-16T02:02:29.519Z,342.00
2022-08-16T02:02:59.515Z,341.00
2022-08-16T02:03:29.627Z,339.00
2022-08-16T02:04:10.212Z,340.00
2022-08-16T02:04:40.043Z,339.00
2022-08-16T02:04:59.773Z,338.00
2022-08-16T02:05:30.307Z,337.00
2022-08-16T02:05:59.784Z,338.00
2022-08-16T02:06:34.379Z,336.00
2022-08-16T02:06:59.822Z,335.00
2022-08-16T02:07:30.637Z,334.00
2022-08-16T02:07:59.975Z,335.00
2022-08-16T02:08:33.306Z,336.00
2022-08-16T02:09:00.073Z,335.00
2022-08-16T02:09:33.848Z,336.00
2022-08-16T02:10:01.956Z,337.00
2022-08-16T02:10:30.288Z,340.00
2022-08-16T02:11:00.377Z,340.00
2022-08-16T02:11:48.766Z,340.00
2022-08-16T02:12:39.505Z,340.00
2022-08-16T02:12:42.132Z,341.00
2022-08-16T02:13:01.160Z,343.00
2022-08-16T02:13:32.719Z,342.00
2022-08-16T02:14:00.681Z,340.00
2022-08-16T02:14:30.734Z,340.00
2022-08-16T02:15:00.988Z,340.00
2022-08-16T02:15:30.912Z,341.00
2022-08-16T02:16:00.956Z,341.00
2022-08-16T02:16:30.988Z,341.00
2022-08-16T02:17:00.975Z,341.00
2022-08-16T02:17:30.992Z,341.00
2022-08-16T02:18:01.559Z,342.00
2022-08-16T02:18:31.196Z,342.00
2022-08-16T02:19:01.304Z,342.00
2022-08-16T02:19:59.212Z,342.00
2022-08-16T02:20:01.422Z,340.00
2022-08-16T02:20:31.488Z,343.00
2022-08-16T02:21:01.570Z,341.00
2022-08-16T02:21:31.868Z,341.00
2022-08-16T02:22:08.927Z,340.00
2022-08-16T02:22:34.356Z,340.00
2022-08-16T02:23:01.868Z,343.00
2022-08-16T02:23:31.880Z,345.00
2022-08-16T02:24:01.957Z,345.00
2022-08-16T02:24:32.570Z,347.00
2022-08-16T02:25:02.143Z,348.00
2022-08-16T02:25:50.510Z,348.00
2022-08-16T02:26:02.331Z,349.00
2022-08-16T02:26:34.405Z,349.00
2022-08-16T02:27:02.428Z,349.00
2022-08-16T02:27:32.528Z,348.00
2022-08-16T02:28:02.567Z,346.00
2022-08-16T02:28:32.641Z,346.00
2022-08-16T02:29:02.729Z,344.00
2022-08-16T02:29:32.798Z,341.00
2022-08-16T02:30:05.531Z,342.00
2022-08-16T02:30:37.553Z,340.00
2022-08-16T02:31:02.946Z,341.00
2022-08-16T02:32:04.208Z,339.00
2022-08-16T02:32:49.000Z,336.00
2022-08-16T02:32:49.805Z,337.00
2022-08-16T02:33:03.542Z,335.00
2022-08-16T02:33:43.572Z,332.00
2022-08-16T02:34:06.412Z,333.00
2022-08-16T02:34:40.415Z,333.00
2022-08-16T02:35:03.159Z,332.00
2022-08-16T02:35:33.159Z,331.00
2022-08-16T02:36:03.280Z,333.00
2022-08-16T02:36:48.009Z,336.00
2022-08-16T02:37:03.335Z,338.00
2022-08-16T02:37:51.742Z,338.00
2022-08-16T02:38:08.800Z,338.00
2022-08-16T02:38:33.357Z,338.00
2022-08-16T02:39:03.356Z,337.00
2022-08-16T02:39:33.497Z,338.00
2022-08-16T02:40:03.583Z,339.00
2022-08-16T02:40:33.547Z,340.00
2022-08-16T02:41:09.533Z,342.00
2022-08-16T02:41:37.334Z,343.00
2022-08-16T02:42:03.683Z,343.00
2022-08-16T02:42:33.719Z,342.00
2022-08-16T02:43:03.716Z,342.00
2022-08-16T02:43:33.837Z,341.00
2022-08-16T02:44:03.832Z,341.00
2022-08-16T02:44:33.897Z,343.00
2022-08-16T02:45:03.998Z,343.00
2022-08-16T02:45:34.004Z,344.00
2022-08-16T02:46:07.705Z,345.00
2022-08-16T02:46:34.140Z,345.00
2022-08-16T02:47:04.308Z,345.00
2022-08-16T02:47:34.297Z,346.00
2022-08-16T02:48:30.455Z,348.00
2022-08-16T02:48:34.331Z,348.00
2022-08-16T02:49:04.450Z,349.00
2022-08-16T02:50:30.602Z,350.00
2022-08-16T02:50:52.656Z,350.00
2022-08-16T02:50:54.289Z,348.00
2022-08-16T02:51:10.430Z,350.00
2022-08-16T02:51:34.552Z,347.00
2022-08-16T02:52:04.792Z,347.00
2022-08-16T02:52:34.698Z,346.00
2022-08-16T02:53:04.703Z,346.00
2022-08-16T02:53:34.743Z,345.00
2022-08-16T02:54:04.753Z,344.00
2022-08-16T02:54:34.837Z,343.00
2022-08-16T02:55:04.839Z,345.00
2022-08-16T02:55:41.253Z,345.00
2022-08-16T02:56:04.921Z,346.00
2022-08-16T02:56:34.915Z,348.00
2022-08-16T02:57:05.071Z,351.00
2022-08-16T02:57:35.122Z,351.00
2022-08-16T02:58:05.184Z,349.00
2022-08-16T02:58:35.252Z,348.00
2022-08-16T02:59:11.748Z,349.00
2022-08-16T02:59:39.732Z,350.00
2022-08-16T03:00:34.195Z,350.00
2022-08-16T03:00:35.423Z,348.00
2022-08-16T03:01:05.553Z,346.00
2022-08-16T03:01:36.512Z,343.00
2022-08-16T03:02:08.264Z,344.00
2022-08-16T03:02:35.621Z,346.00
2022-08-16T03:03:05.659Z,347.00
2022-08-16T03:04:29.074Z,346.00
2022-08-16T03:04:39.846Z,347.00
2022-08-16T03:04:50.318Z,346.00
2022-08-16T03:05:05.724Z,345.00
2022-08-16T03:05:35.723Z,346.00
2022-08-16T03:06:41.360Z,345.00
2022-08-16T03:06:42.373Z,346.00
2022-08-16T03:07:05.931Z,346.00
2022-08-16T03:07:37.205Z,343.00
2022-08-16T03:08:05.954Z,343.00
2022-08-16T03:08:50.716Z,342.00
2022-08-16T03:09:05.981Z,341.00
2022-08-16T03:09:36.105Z,340.00
2022-08-16T03:10:06.094Z,342.00
2022-08-16T03:10:36.153Z,342.00
2022-08-16T03:11:06.176Z,340.00
2022-08-16T03:11:36.199Z,336.00
2022-08-16T03:12:06.308Z,336.00
2022-08-16T03:12:36.652Z,339.00
2022-08-16T03:13:12.501Z,339.00
2022-08-16T03:13:40.129Z,340.00
2022-08-16T03:14:07.776Z,341.00
2022-08-16T03:14:36.439Z,340.00
2022-08-16T03:15:06.443Z,341.00
2022-08-16T03:15:36.524Z,341.00
2022-08-16T03:16:06.633Z,341.00
2022-08-16T03:16:39.042Z,340.00
2022-08-16T03:17:06.701Z,340.00
2022-08-16T03:17:36.775Z,339.00
2022-08-16T03:18:18.749Z,339.00
2022-08-16T03:18:41.813Z,337.00
2022-08-16T03:19:06.833Z,337.00
2022-08-16T03:19:52.815Z,337.00
2022-08-16T03:20:07.015Z,337.00
2022-08-16T03:20:37.058Z,339.00
2022-08-16T03:21:07.086Z,340.00
2022-08-16T03:21:38.099Z,340.00
2022-08-16T03:22:07.246Z,340.00
2022-08-16T03:22:37.326Z,338.00
2022-08-16T03:23:07.380Z,337.00
2022-08-16T03:23:37.457Z,336.00
2022-08-16T03:24:28.551Z,336.00
2022-08-16T03:24:37.684Z,337.00
2022-08-16T03:25:07.798Z,338.00
2022-08-16T03:25:44.342Z,337.00
2022-08-16T03:26:07.956Z,338.00
2022-08-16T03:26:38.041Z,337.00
2022-08-16T03:27:08.117Z,338.00
2022-08-16T03:27:38.167Z,338.00
2022-08-16T03:28:08.205Z,339.00
2022-08-16T03:28:38.247Z,342.00
2022-08-16T03:29:08.325Z,342.00
2022-08-16T03:29:38.386Z,342.00
2022-08-16T03:30:15.991Z,342.00
2022-08-16T03:30:38.500Z,344.00
2022-08-16T03:31:08.496Z,342.00
2022-08-16T03:31:40.649Z,341.00
2022-08-16T03:32:08.739Z,342.00
2022-08-16T03:32:38.739Z,341.00
2022-08-16T03:33:08.833Z,340.00
2022-08-16T03:33:38.945Z,339.00
2022-08-16T03:34:09.024Z,339.00
2022-08-16T03:34:39.145Z,339.00
2022-08-16T03:35:09.143Z,339.00
2022-08-16T03:35:40.183Z,338.00
2022-08-16T03:36:30.447Z,337.00
2022-08-16T03:36:39.304Z,338.00
2022-08-16T03:37:09.351Z,338.00
2022-08-16T03:38:02.051Z,339.00
2022-08-16T03:38:33.897Z,340.00
2022-08-16T03:38:39.510Z,341.00
2022-08-16T03:39:14.950Z,343.00
2022-08-16T03:39:42.998Z,345.00
2022-08-16T03:40:09.637Z,345.00
2022-08-16T03:40:39.627Z,346.00
2022-08-16T03:41:14.321Z,346.00
2022-08-16T03:41:51.007Z,345.00
2022-08-16T03:42:09.812Z,345.00
2022-08-16T03:43:19.042Z,344.00
2022-08-16T03:43:19.673Z,342.00
2022-08-16T03:43:51.747Z,341.00
2022-08-16T03:44:09.827Z,342.00
2022-08-16T03:44:44.064Z,342.00
2022-08-16T03:45:09.839Z,342.00
2022-08-16T03:45:39.955Z,343.00
2022-08-16T03:46:09.986Z,342.00
2022-08-16T03:46:45.124Z,342.00
2022-08-16T03:47:10.571Z,341.00
2022-08-16T03:47:40.203Z,341.00
2022-08-16T03:48:10.244Z,340.00
2022-08-16T03:48:40.572Z,342.00
2022-08-16T03:49:10.287Z,344.00
2022-08-16T03:49:40.375Z,346.00
2022-08-16T03:50:25.550Z,347.00
2022-08-16T03:50:40.386Z,347.00
2022-08-16T03:51:10.502Z,349.00
2022-08-16T03:51:40.522Z,348.00
2022-08-16T03:52:10.513Z,350.00
2022-08-16T03:52:43.805Z,352.00
2022-08-16T03:53:10.693Z,352.00
2022-08-16T03:53:40.689Z,353.00
2022-08-16T03:54:12.219Z,357.00
2022-08-16T03:54:53.379Z,360.00
2022-08-16T03:55:15.214Z,363.00
2022-08-16T03:55:45.735Z,403.00
2022-08-16T03:56:19.878Z,404.00
2022-08-16T03:56:57.798Z,411.00
2022-08-16T03:57:11.449Z,417.00
2022-08-16T03:57:40.963Z,424.00
2022-08-16T03:58:10.973Z,421.00
2022-08-16T03:58:41.069Z,419.00
2022-08-16T03:59:11.119Z,419.00
2022-08-16T03:59:43.600Z,420.00
2022-08-16T04:00:11.159Z,420.00
2022-08-16T04:00:41.527Z,418.00
2022-08-16T04:01:11.304Z,419.00
2022-08-16T04:01:41.383Z,421.00
2022-08-16T04:02:22.855Z,422.00
2022-08-16T04:02:41.350Z,425.00
2022-08-16T04:03:11.345Z,425.00
2022-08-16T04:03:41.349Z,426.00
2022-08-16T04:04:11.461Z,423.00
2022-08-16T04:04:41.466Z,423.00
2022-08-16T04:05:11.490Z,423.00
2022-08-16T04:05:44.033Z,423.00
2022-08-16T04:06:11.580Z,419.00
2022-08-16T04:06:41.690Z,418.00
2022-08-16T04:07:11.705Z,418.00
2022-08-16T04:07:41.840Z,422.00
2022-08-16T04:08:23.831Z,424.00
2022-08-16T04:08:41.873Z,429.00
2022-08-16T04:09:12.529Z,431.00
2022-08-16T04:09:41.957Z,434.00
2022-08-16T04:10:36.847Z,432.00
2022-08-16T04:10:42.085Z,434.00
2022-08-16T04:11:12.123Z,435.00
2022-08-16T04:11:42.170Z,436.00
2022-08-16T04:12:53.332Z,438.00
2022-08-16T04:12:54.404Z,438.00
2022-08-16T04:13:20.600Z,437.00
2022-08-16T04:13:58.907Z,436.00
2022-08-16T04:14:33.413Z,436.00
2022-08-16T04:14:46.610Z,436.00
2022-08-16T04:15:12.268Z,435.00
2022-08-16T04:15:42.356Z,432.00
2022-08-16T04:16:26.239Z,431.00
2022-08-16T04:16:42.369Z,431.00
2022-08-16T04:17:12.365Z,432.00
2022-08-16T04:17:42.520Z,435.00
2022-08-16T04:18:12.529Z,435.00
2022-08-16T04:18:42.583Z,437.00
2022-08-16T04:19:12.627Z,439.00
2022-08-16T04:19:45.679Z,438.00
2022-08-16T04:20:29.552Z,443.00
2022-08-16T04:20:42.800Z,443.00
2022-08-16T04:21:12.862Z,443.00
2022-08-16T04:21:47.214Z,443.00
2022-08-16T04:22:13.040Z,444.00
2022-08-16T04:22:43.155Z,444.00
2022-08-16T04:23:13.226Z,443.00
2022-08-16T04:23:43.325Z,446.00
2022-08-16T04:24:13.402Z,441.00
2022-08-16T04:24:43.487Z,438.00
2022-08-16T04:25:13.593Z,435.00
2022-08-16T04:25:47.050Z,438.00
2022-08-16T04:26:17.314Z,442.00
2022-08-16T04:26:45.871Z,443.00
2022-08-16T04:27:13.894Z,444.00
2022-08-16T04:27:54.407Z,441.00
2022-08-16T04:28:52.069Z,436.00
2022-08-16T04:28:55.893Z,433.00
2022-08-16T04:29:15.138Z,430.00
2022-08-16T04:29:46.541Z,422.00
2022-08-16T04:30:14.327Z,420.00
2022-08-16T04:30:44.336Z,417.00
2022-08-16T04:31:14.399Z,415.00
2022-08-16T04:31:44.508Z,413.00
2022-08-16T04:32:14.614Z,411.00
2022-08-16T04:32:44.607Z,408.00
2022-08-16T04:33:14.664Z,407.00
2022-08-16T04:33:51.015Z,406.00
2022-08-16T04:34:14.758Z,404.00
2022-08-16T04:34:44.879Z,402.00
2022-08-16T04:35:16.358Z,400.00
2022-08-16T04:35:44.895Z,398.00
2022-08-16T04:36:20.129Z,394.00
2022-08-16T04:36:44.931Z,393.00
2022-08-16T04:37:16.065Z,393.00
2022-08-16T04:37:45.028Z,392.00
2022-08-16T04:38:20.776Z,390.00
2022-08-16T04:38:45.185Z,390.00
2022-08-16T04:39:15.760Z,388.00
2022-08-16T04:39:47.186Z,385.00
2022-08-16T04:40:20.551Z,384.00
2022-08-16T04:40:45.422Z,383.00
2022-08-16T04:41:15.449Z,382.00
2022-08-16T04:41:45.495Z,381.00
2022-08-16T04:42:15.611Z,382.00
2022-08-16T04:42:45.615Z,379.00
2022-08-16T04:43:17.539Z,380.00
2022-08-16T04:43:45.793Z,380.00
2022-08-16T04:44:32.466Z,379.00
2022-08-16T04:44:53.878Z,377.00
2022-08-16T04:45:17.842Z,402.00
2022-08-16T04:45:45.839Z,393.00
2022-08-16T04:46:29.952Z,397.00
2022-08-16T04:47:02.627Z,387.00
2022-08-16T04:47:21.926Z,387.00
2022-08-16T04:47:46.002Z,390.00
2022-08-16T04:48:21.817Z,390.00
2022-08-16T04:48:46.037Z,389.00
2022-08-16T04:49:16.091Z,389.00
2022-08-16T04:49:46.418Z,387.00
2022-08-16T04:50:16.151Z,387.00
2022-08-16T04:50:46.229Z,386.00
2022-08-16T04:51:16.347Z,387.00
2022-08-16T04:51:46.347Z,385.00
2022-08-16T04:52:34.130Z,388.00
2022-08-16T04:52:46.405Z,387.00
2022-08-16T04:53:16.422Z,388.00
2022-08-16T04:53:46.495Z,388.00
2022-08-16T04:54:19.480Z,388.00
2022-08-16T04:54:46.655Z,388.00
2022-08-16T04:55:16.779Z,386.00
2022-08-16T04:55:46.883Z,384.00
2022-08-16T04:56:16.903Z,382.00
2022-08-16T04:56:46.919Z,378.00
2022-08-16T04:57:16.963Z,376.00
2022-08-16T04:57:53.357Z,375.00
2022-08-16T04:58:45.275Z,374.00
2022-08-16T04:58:47.311Z,374.00
2022-08-16T04:59:17.050Z,373.00
2022-08-16T04:59:47.079Z,373.00
2022-08-16T05:00:31.659Z,373.00
2022-08-16T05:00:47.193Z,371.00
2022-08-16T05:01:17.272Z,371.00
2022-08-16T05:01:58.486Z,372.00
2022-08-16T05:02:42.309Z,370.00
2022-08-16T05:02:47.338Z,371.00
2022-08-16T05:03:17.332Z,371.00
2022-08-16T05:04:00.454Z,370.00
2022-08-16T05:04:19.598Z,368.00
2022-08-16T05:04:47.472Z,367.00
2022-08-16T05:05:17.961Z,368.00
2022-08-16T05:05:59.037Z,366.00
2022-08-16T05:06:17.549Z,364.00
2022-08-16T05:06:47.606Z,364.00
2022-08-16T05:07:20.424Z,362.00
2022-08-16T05:07:58.599Z,360.00
2022-08-16T05:08:29.785Z,360.00
2022-08-16T05:08:47.819Z,360.00
2022-08-16T05:09:17.919Z,359.00
2022-08-16T05:09:49.228Z,360.00
2022-08-16T05:10:19.880Z,359.00
2022-08-16T05:10:48.154Z,359.00
2022-08-16T05:11:18.273Z,359.00
2022-08-16T05:11:48.396Z,359.00
2022-08-16T05:12:22.305Z,357.00
2022-08-16T05:12:48.625Z,358.00
2022-08-16T05:13:18.527Z,357.00
2022-08-16T05:13:48.640Z,357.00
2022-08-16T05:14:42.172Z,358.00
2022-08-16T05:15:02.572Z,358.00
2022-08-16T05:15:18.771Z,357.00
2022-08-16T05:15:49.689Z,354.00
2022-08-16T05:16:21.507Z,354.00
2022-08-16T05:16:48.945Z,353.00
2022-08-16T05:17:19.015Z,350.00
2022-08-16T05:17:49.142Z,349.00
2022-08-16T05:18:23.305Z,349.00
2022-08-16T05:18:49.179Z,350.00
2022-08-16T05:19:19.299Z,352.00
2022-08-16T05:19:57.429Z,353.00
2022-08-16T05:20:38.494Z,356.00
2022-08-16T05:20:54.234Z,356.00
2022-08-16T05:21:20.880Z,358.00
2022-08-16T05:21:49.718Z,357.00
2022-08-16T05:22:19.753Z,358.00
2022-08-16T05:22:49.859Z,357.00
2022-08-16T05:23:19.853Z,358.00
2022-08-16T05:23:55.807Z,357.00
2022-08-16T05:24:22.207Z,356.00
2022-08-16T05:24:50.011Z,356.00
2022-08-16T05:25:20.122Z,356.00
2022-08-16T05:25:50.210Z,356.00
2022-08-16T05:26:20.530Z,358.00
2022-08-16T05:26:51.493Z,359.00
2022-08-16T05:27:20.394Z,359.00
2022-08-16T05:27:50.505Z,358.00
2022-08-16T05:28:20.596Z,357.00
2022-08-16T05:28:55.577Z,359.00
2022-08-16T05:29:20.790Z,361.00
2022-08-16T05:30:00.949Z,362.00
2022-08-16T05:30:35.322Z,362.00
2022-08-16T05:30:50.899Z,362.00
2022-08-16T05:31:21.018Z,364.00
2022-08-16T05:31:53.391Z,364.00
2022-08-16T05:32:32.860Z,362.00
2022-08-16T05:32:51.491Z,361.00
2022-08-16T05:33:21.169Z,360.00
2022-08-16T05:33:53.311Z,360.00
2022-08-16T05:34:21.330Z,358.00
2022-08-16T05:34:51.313Z,357.00
2022-08-16T05:35:21.437Z,357.00
2022-08-16T05:35:55.039Z,357.00
2022-08-16T05:36:21.592Z,358.00
2022-08-16T05:36:51.601Z,359.00
2022-08-16T05:37:21.715Z,358.00
2022-08-16T05:37:51.716Z,358.00
2022-08-16T05:38:32.828Z,359.00
2022-08-16T05:38:51.758Z,358.00
2022-08-16T05:39:22.478Z,359.00
2022-08-16T05:39:55.226Z,359.00
2022-08-16T05:40:21.887Z,358.00
2022-08-16T05:41:00.065Z,358.00
2022-08-16T05:41:22.031Z,358.00
2022-08-16T05:41:52.193Z,358.00
2022-08-16T05:42:22.058Z,358.00
2022-08-16T05:42:52.304Z,358.00
2022-08-16T05:43:22.098Z,358.00
2022-08-16T05:43:59.213Z,359.00
2022-08-16T05:44:23.140Z,357.00
2022-08-16T05:44:52.172Z,357.00
2022-08-16T05:45:23.304Z,361.00
2022-08-16T05:45:52.267Z,361.00
2022-08-16T05:46:30.211Z,362.00
2022-08-16T05:46:52.408Z,361.00
2022-08-16T05:47:22.515Z,361.00
2022-08-16T05:47:59.515Z,361.00
2022-08-16T05:48:27.017Z,362.00
2022-08-16T05:48:55.256Z,363.00
2022-08-16T05:49:23.288Z,362.00
2022-08-16T05:49:52.623Z,362.00
2022-08-16T05:50:28.392Z,359.00
2022-08-16T05:50:52.859Z,360.00
2022-08-16T05:51:38.244Z,362.00
2022-08-16T05:51:52.890Z,363.00
2022-08-16T05:52:23.019Z,363.00
2022-08-16T05:52:53.076Z,363.00
2022-08-16T05:53:24.778Z,363.00
2022-08-16T05:53:53.105Z,362.00
2022-08-16T05:54:24.753Z,363.00
2022-08-16T05:55:01.070Z,364.00
2022-08-16T05:55:23.268Z,365.00
2022-08-16T05:55:53.323Z,360.00
2022-08-16T05:56:23.368Z,363.00
2022-08-16T05:56:53.481Z,361.00
2022-08-16T05:57:23.496Z,360.00
2022-08-16T05:57:53.495Z,361.00
2022-08-16T05:58:33.140Z,360.00
2022-08-16T05:58:53.628Z,360.00
2022-08-16T05:59:23.620Z,358.00
2022-08-16T05:59:59.657Z,359.00
2022-08-16T06:00:23.665Z,357.00
2022-08-16T06:00:53.691Z,359.00
2022-08-16T06:01:23.883Z,358.00
2022-08-16T06:01:53.916Z,358.00
2022-08-16T06:02:23.900Z,358.00
2022-08-16T06:02:53.938Z,358.00
2022-08-16T06:03:23.962Z,359.00
2022-08-16T06:03:54.076Z,358.00
2022-08-16T06:04:35.098Z,359.00
2022-08-16T06:04:54.464Z,361.00
2022-08-16T06:05:24.127Z,360.00
2022-08-16T06:05:54.721Z,360.00
2022-08-16T06:06:28.000Z,357.00
2022-08-16T06:06:56.593Z,356.00
2022-08-16T06:07:26.599Z,357.00
2022-08-16T06:07:58.398Z,356.00
2022-08-16T06:08:32.026Z,358.00
2022-08-16T06:08:54.600Z,358.00
2022-08-16T06:09:24.621Z,357.00
2022-08-16T06:09:54.706Z,358.00
2022-08-16T06:10:33.141Z,357.00
2022-08-16T06:11:09.652Z,359.00
2022-08-16T06:11:25.634Z,359.00
2022-08-16T06:11:54.894Z,358.00
2022-08-16T06:12:26.818Z,357.00
2022-08-16T06:12:55.985Z,358.00
2022-08-16T06:13:25.059Z,359.00
2022-08-16T06:13:55.398Z,360.00
2022-08-16T06:14:25.120Z,359.00
2022-08-16T06:14:55.154Z,358.00